createdAt,value
2023-02-04T00:00:17.440Z,8.70
2023-02-04T00:02:45.224Z,8.79
2023-02-04T00:05:13.810Z,8.71
2023-02-04T00:07:41.615Z,8.67
2023-02-04T00:10:10.236Z,8.73
2023-02-04T00:12:39.885Z,8.70
2023-02-04T00:15:10.724Z,8.69
2023-02-04T00:17:39.357Z,8.68
2023-02-04T00:20:07.666Z,8.64
2023-02-04T00:22:35.303Z,8.71
2023-02-04T00:25:04.502Z,8.68
2023-02-04T00:27:32.070Z,8.67
2023-02-04T00:29:59.893Z,8.55
2023-02-04T00:32:31.517Z,8.52
2023-02-04T00:34:59.055Z,8.62
2023-02-04T00:37:26.703Z,8.46
2023-02-04T00:39:54.316Z,8.50
2023-02-04T00:42:22.009Z,8.51
2023-02-04T00:44:49.755Z,8.55
2023-02-04T00:47:17.478Z,8.59
2023-02-04T00:49:46.673Z,8.41
2023-02-04T00:52:14.271Z,8.37
2023-02-04T00:54:41.884Z,8.47
2023-02-04T00:57:09.490Z,8.42
2023-02-04T00:59:37.209Z,8.36
2023-02-04T01:02:04.744Z,8.39
2023-02-04T01:04:32.199Z,8.33
2023-02-04T01:07:01.074Z,8.34
2023-02-04T01:09:28.648Z,8.38
2023-02-04T01:11:56.137Z,8.26
2023-02-04T01:14:23.668Z,8.36
2023-02-04T01:16:51.198Z,8.39
2023-02-04T01:19:18.995Z,8.30
2023-02-04T01:21:46.453Z,8.06
2023-02-04T01:24:15.334Z,8.20
2023-02-04T01:26:42.836Z,8.25
2023-02-04T01:29:10.502Z,8.21
2023-02-04T01:31:38.010Z,8.17
2023-02-04T01:34:05.540Z,8.22
2023-02-04T01:36:33.020Z,8.27
2023-02-04T01:39:00.971Z,8.22
2023-02-04T01:41:29.806Z,8.25
2023-02-04T01:43:57.290Z,8.23
2023-02-04T01:46:25.228Z,8.27
2023-02-04T01:48:52.768Z,8.19
2023-02-04T01:51:26.941Z,8.12
2023-02-04T01:53:55.338Z,8.01
2023-02-04T01:56:26.358Z,8.14
2023-02-04T01:58:56.311Z,8.19
2023-02-04T02:01:38.118Z,8.08
2023-02-04T02:04:06.515Z,8.16
2023-02-04T02:06:34.180Z,8.15
2023-02-04T02:09:02.403Z,8.16
2023-02-04T02:11:29.978Z,8.11
2023-02-04T02:13:58.825Z,8.09
2023-02-04T02:16:26.386Z,8.08
2023-02-04T02:18:54.481Z,7.94
2023-02-04T02:21:25.631Z,7.98
2023-02-04T02:23:57.129Z,8.09
2023-02-04T02:26:25.149Z,8.01
2023-02-04T02:28:52.946Z,7.90
2023-02-04T02:31:22.467Z,7.92
2023-02-04T02:33:50.240Z,7.95
2023-02-04T02:36:18.280Z,7.96
2023-02-04T02:38:45.893Z,7.98
2023-02-04T02:41:17.672Z,7.77
2023-02-04T02:43:45.208Z,7.88
2023-02-04T02:46:12.761Z,7.92
2023-02-04T02:48:40.264Z,7.80
2023-02-04T02:51:07.867Z,7.88
2023-02-04T02:53:35.828Z,7.89
2023-02-04T02:56:04.682Z,7.85
2023-02-04T02:58:34.623Z,7.73
2023-02-04T03:01:03.839Z,7.54
2023-02-04T03:03:33.064Z,7.71
2023-02-04T03:06:02.795Z,7.75
2023-02-04T03:08:30.287Z,7.65
2023-02-04T03:10:57.733Z,7.52
2023-02-04T03:13:25.373Z,7.46
2023-02-04T03:15:55.195Z,7.43
2023-02-04T03:18:22.855Z,7.40
2023-02-04T03:20:52.342Z,7.77
2023-02-04T03:23:20.324Z,7.67
2023-02-04T03:25:47.982Z,7.65
2023-02-04T03:28:15.652Z,7.52
2023-02-04T03:30:43.307Z,7.47
2023-02-04T03:33:12.185Z,7.49
2023-02-04T03:35:39.673Z,7.52
2023-02-04T03:38:07.128Z,7.51
2023-02-04T03:40:34.607Z,7.60
2023-02-04T03:43:02.057Z,7.48
2023-02-04T03:45:37.472Z,7.42
2023-02-04T03:48:12.720Z,7.70
2023-02-04T03:50:40.187Z,7.59
2023-02-04T03:53:07.766Z,7.73
2023-02-04T03:55:35.933Z,7.67
2023-02-04T03:58:03.855Z,7.57
2023-02-04T04:00:32.367Z,7.58
2023-02-04T04:03:00.129Z,7.59
2023-02-04T04:05:29.099Z,7.54
2023-02-04T04:07:56.633Z,7.62
2023-02-04T04:10:24.136Z,7.43
2023-02-04T04:12:51.689Z,7.44
2023-02-04T04:15:19.327Z,7.60
2023-02-04T04:17:46.828Z,7.56
2023-02-04T04:20:14.333Z,7.62
2023-02-04T04:22:43.284Z,7.54
2023-02-04T04:25:10.782Z,7.54
2023-02-04T04:27:38.316Z,7.39
2023-02-04T04:30:06.307Z,7.50
2023-02-04T04:32:33.785Z,7.51
2023-02-04T04:35:01.345Z,7.47
2023-02-04T04:37:28.799Z,7.38
2023-02-04T04:39:57.614Z,7.50
2023-02-04T04:42:25.073Z,7.53
2023-02-04T04:44:52.534Z,7.52
2023-02-04T04:47:20.022Z,7.41
2023-02-04T04:49:47.482Z,7.38
2023-02-04T04:52:14.935Z,7.40
2023-02-04T04:54:42.434Z,7.29
2023-02-04T04:57:11.244Z,7.32
2023-02-04T04:59:38.727Z,7.30
2023-02-04T05:02:06.166Z,7.20
2023-02-04T05:04:33.881Z,7.28
2023-02-04T05:07:01.322Z,7.26
2023-02-04T05:09:28.820Z,7.19
2023-02-04T05:11:56.335Z,7.25
2023-02-04T05:14:25.325Z,7.37
2023-02-04T05:16:52.789Z,7.35
2023-02-04T05:19:20.279Z,7.32
2023-02-04T05:21:47.736Z,7.19
2023-02-04T05:24:15.296Z,7.19
2023-02-04T05:26:42.780Z,7.18
2023-02-04T05:29:10.774Z,7.12
2023-02-04T05:31:39.715Z,7.20
2023-02-04T05:34:07.265Z,7.15
2023-02-04T05:36:34.907Z,7.13
2023-02-04T05:39:02.452Z,7.01
2023-02-04T05:41:29.931Z,7.09
2023-02-04T05:43:57.437Z,6.98
2023-02-04T05:46:25.058Z,6.90
2023-02-04T05:48:53.957Z,7.02
2023-02-04T05:51:21.486Z,7.16
2023-02-04T05:53:49.547Z,7.15
2023-02-04T05:56:17.076Z,7.02
2023-02-04T05:58:44.554Z,6.98
2023-02-04T06:01:12.057Z,7.12
2023-02-04T06:03:39.600Z,7.16
2023-02-04T06:06:08.692Z,7.19
2023-02-04T06:08:36.194Z,7.09
2023-02-04T06:11:03.699Z,7.07
2023-02-04T06:13:31.193Z,6.91
2023-02-04T06:15:58.666Z,6.90
2023-02-04T06:18:26.109Z,6.87
2023-02-04T06:20:53.819Z,6.95
2023-02-04T06:23:22.617Z,6.94
2023-02-04T06:25:50.299Z,6.86
2023-02-04T06:28:17.814Z,6.92
2023-02-04T06:30:45.411Z,6.90
2023-02-04T06:33:12.935Z,6.96
2023-02-04T06:35:40.392Z,6.81
2023-02-04T06:38:07.839Z,6.92
2023-02-04T06:40:36.652Z,6.97
2023-02-04T06:43:04.613Z,7.04
2023-02-04T06:45:32.138Z,7.17
2023-02-04T06:47:59.629Z,7.28
2023-02-04T06:50:28.106Z,7.49
2023-02-04T06:52:55.557Z,7.48
2023-02-04T06:55:23.039Z,7.43
2023-02-04T06:57:51.922Z,7.57
2023-02-04T07:00:19.910Z,7.53
2023-02-04T07:02:47.419Z,7.43
2023-02-04T07:05:14.873Z,7.25
2023-02-04T07:07:42.332Z,7.14
2023-02-04T07:10:10.655Z,7.06
2023-02-04T07:12:38.122Z,6.98
2023-02-04T07:15:07.773Z,6.77
2023-02-04T07:17:35.225Z,6.91
2023-02-04T07:20:02.703Z,7.15
2023-02-04T07:22:30.219Z,7.40
2023-02-04T07:24:58.707Z,7.39
2023-02-04T07:27:26.190Z,7.04
2023-02-04T07:29:53.706Z,6.81
2023-02-04T07:32:22.503Z,6.73
2023-02-04T07:34:49.972Z,6.90
2023-02-04T07:37:17.485Z,6.81
2023-02-04T07:39:44.975Z,6.82
2023-02-04T07:42:12.436Z,6.96
2023-02-04T07:44:39.934Z,7.07
2023-02-04T07:47:07.586Z,7.20
2023-02-04T07:49:36.585Z,7.36
2023-02-04T07:52:04.189Z,7.36
2023-02-04T07:54:31.807Z,7.40
2023-02-04T07:56:59.309Z,7.48
2023-02-04T07:59:26.932Z,7.48
2023-02-04T08:01:54.645Z,7.56
2023-02-04T08:04:22.218Z,7.68
2023-02-04T08:06:51.285Z,7.80
2023-02-04T08:09:18.994Z,7.90
2023-02-04T08:11:46.528Z,7.76
2023-02-04T08:14:14.310Z,7.84
2023-02-04T08:16:42.273Z,7.78
2023-02-04T08:19:10.045Z,7.91
2023-02-04T08:21:37.580Z,8.10
2023-02-04T08:24:06.982Z,8.15
2023-02-04T08:26:34.674Z,8.15
2023-02-04T08:29:02.312Z,8.11
2023-02-04T08:31:30.024Z,8.19
2023-02-04T08:33:57.694Z,8.24
2023-02-04T08:36:25.372Z,8.21
2023-02-04T08:38:52.949Z,8.34
2023-02-04T08:41:22.010Z,8.24
2023-02-04T08:43:49.908Z,8.33
2023-02-04T08:46:17.651Z,8.47
2023-02-04T08:48:45.311Z,8.48
2023-02-04T08:51:12.988Z,8.78
2023-02-04T08:53:41.275Z,8.78
2023-02-04T08:56:09.245Z,8.73
2023-02-04T08:58:39.617Z,8.76
2023-02-04T09:01:07.295Z,8.83
2023-02-04T09:03:35.241Z,8.85
2023-02-04T09:06:02.918Z,8.80
2023-02-04T09:08:30.538Z,8.83
2023-02-04T09:10:58.020Z,8.64
2023-02-04T09:13:27.139Z,8.61
2023-02-04T09:15:55.948Z,8.62
2023-02-04T09:18:25.147Z,8.64
2023-02-04T09:20:53.498Z,8.72
2023-02-04T09:23:21.299Z,8.74
2023-02-04T09:25:49.514Z,8.73
2023-02-04T09:28:17.124Z,8.76
2023-02-04T09:30:46.250Z,8.64
2023-02-04T09:33:16.710Z,8.60
2023-02-04T09:35:44.281Z,8.67
2023-02-04T09:38:11.813Z,8.61
2023-02-04T09:40:48.826Z,8.60
2023-02-04T09:43:19.911Z,8.48
2023-02-04T09:45:49.350Z,8.52
2023-02-04T09:48:18.446Z,8.44
2023-02-04T09:50:46.334Z,8.45
2023-02-04T09:53:15.893Z,8.49
2023-02-04T09:55:46.069Z,8.54
2023-02-04T09:58:16.345Z,8.54
2023-02-04T10:00:44.623Z,8.51
2023-02-04T10:03:15.883Z,8.59
2023-02-04T10:05:45.280Z,8.62
2023-02-04T10:08:15.468Z,8.63
2023-02-04T10:10:43.174Z,8.58
2023-02-04T10:13:15.853Z,8.58
2023-02-04T10:15:43.336Z,8.63
2023-02-04T10:18:12.641Z,8.59
2023-02-04T10:20:40.117Z,8.62
2023-02-04T10:23:12.784Z,8.61
2023-02-04T10:25:40.346Z,8.62
2023-02-04T10:28:07.832Z,8.69
2023-02-04T10:30:41.206Z,8.55
2023-02-04T10:33:16.481Z,8.68
2023-02-04T10:35:48.203Z,8.67
2023-02-04T10:38:17.205Z,8.70
2023-02-04T10:40:46.054Z,8.64
2023-02-04T10:43:16.722Z,8.62
2023-02-04T10:45:47.669Z,8.51
2023-02-04T10:48:17.384Z,8.39
2023-02-04T10:50:45.307Z,8.26
2023-02-04T10:53:30.602Z,8.23
2023-02-04T10:55:59.669Z,8.20
2023-02-04T10:58:29.260Z,8.18
2023-02-04T11:00:57.069Z,8.26
2023-02-04T11:03:26.283Z,8.25
2023-02-04T11:05:54.456Z,8.23
2023-02-04T11:08:24.029Z,8.30
2023-02-04T11:10:52.758Z,8.35
2023-02-04T11:13:26.381Z,8.43
2023-02-04T11:16:10.806Z,8.53
2023-02-04T11:18:47.464Z,8.53
2023-02-04T11:21:16.138Z,8.60
2023-02-04T11:23:43.631Z,8.63
2023-02-04T11:26:14.154Z,8.64
2023-02-04T11:28:52.174Z,8.70
2023-02-04T11:31:40.692Z,8.51
2023-02-04T11:34:12.191Z,8.42
2023-02-04T11:36:52.403Z,8.36
2023-02-04T11:39:20.294Z,8.65
2023-02-04T11:41:48.106Z,8.66
2023-02-04T11:44:17.491Z,8.48
2023-02-04T11:46:45.158Z,8.40
2023-02-04T11:49:18.535Z,8.36
2023-02-04T11:51:46.603Z,8.68
2023-02-04T11:54:16.309Z,8.79
2023-02-04T11:56:43.959Z,8.93
2023-02-04T11:59:12.930Z,8.82
2023-02-04T12:01:42.232Z,9.05
2023-02-04T12:04:24.038Z,9.22
2023-02-04T12:06:59.723Z,9.13
2023-02-04T12:09:29.812Z,9.02
2023-02-04T12:11:58.894Z,9.17
2023-02-04T12:14:30.329Z,9.41
2023-02-04T12:16:59.190Z,9.27
2023-02-04T12:19:27.760Z,9.05
2023-02-04T12:21:55.752Z,8.97
2023-02-04T12:24:23.234Z,8.90
2023-02-04T12:26:51.635Z,9.20
2023-02-04T12:29:19.138Z,9.35
2023-02-04T12:31:46.862Z,9.37
2023-02-04T12:34:17.257Z,8.94
2023-02-04T12:36:44.884Z,8.81
2023-02-04T12:39:12.368Z,8.99
2023-02-04T12:41:39.811Z,9.06
2023-02-04T12:44:07.265Z,8.98
2023-02-04T12:46:34.834Z,9.12
2023-02-04T12:49:02.301Z,9.11
2023-02-04T12:51:31.115Z,9.14
2023-02-04T12:53:58.561Z,9.26
2023-02-04T12:56:26.182Z,9.27
2023-02-04T12:58:53.699Z,9.03
2023-02-04T13:01:21.122Z,9.19
2023-02-04T13:03:48.652Z,9.30
2023-02-04T13:06:16.137Z,9.21
2023-02-04T13:08:44.941Z,9.40
2023-02-04T13:11:12.461Z,9.39
2023-02-04T13:13:40.523Z,9.60
2023-02-04T13:16:08.034Z,9.56
2023-02-04T13:18:35.544Z,9.47
2023-02-04T13:21:03.030Z,9.34
2023-02-04T13:23:30.480Z,9.29
2023-02-04T13:25:59.283Z,9.21
2023-02-04T13:28:26.736Z,9.15
2023-02-04T13:30:54.197Z,9.18
2023-02-04T13:33:21.715Z,9.20
2023-02-04T13:35:49.184Z,9.13
2023-02-04T13:38:16.680Z,9.23
2023-02-04T13:40:44.159Z,9.17
2023-02-04T13:43:13.012Z,9.27
2023-02-04T13:45:47.324Z,9.22
2023-02-04T13:48:15.497Z,9.33
2023-02-04T13:50:43.048Z,9.15
2023-02-04T13:53:10.663Z,9.13
2023-02-04T13:55:38.159Z,9.15
2023-02-04T13:58:05.610Z,9.38
2023-02-04T14:00:34.921Z,9.69
2023-02-04T14:03:02.682Z,9.62
2023-02-04T14:05:30.167Z,9.35
2023-02-04T14:07:57.609Z,9.31
2023-02-04T14:10:26.729Z,9.53
2023-02-04T14:12:54.488Z,9.73
2023-02-04T14:15:21.964Z,9.60
2023-02-04T14:17:50.813Z,9.65
2023-02-04T14:20:18.719Z,9.64
2023-02-04T14:22:46.321Z,9.69
2023-02-04T14:25:13.802Z,9.67
2023-02-04T14:27:42.512Z,9.65
2023-02-04T14:30:17.645Z,9.60
2023-02-04T14:32:45.127Z,9.58
2023-02-04T14:35:14.475Z,9.40
2023-02-04T14:37:42.031Z,9.18
2023-02-04T14:40:11.337Z,8.92
2023-02-04T14:42:39.315Z,8.87
2023-02-04T14:45:08.312Z,8.75
2023-02-04T14:47:35.855Z,8.80
2023-02-04T14:50:04.420Z,8.85
2023-02-04T14:52:33.203Z,8.75
2023-02-04T14:55:00.781Z,8.74
2023-02-04T14:57:28.251Z,9.04
2023-02-04T14:59:55.734Z,9.09
2023-02-04T15:02:23.287Z,8.83
2023-02-04T15:04:50.799Z,8.82
2023-02-04T15:07:18.336Z,8.80
2023-02-04T15:09:48.228Z,8.68
2023-02-04T15:12:15.859Z,8.78
2023-02-04T15:14:43.322Z,8.72
2023-02-04T15:17:10.789Z,8.96
2023-02-04T15:19:38.301Z,9.04
2023-02-04T15:22:05.784Z,9.03
2023-02-04T15:24:33.233Z,9.13
2023-02-04T15:27:02.098Z,9.16
2023-02-04T15:29:30.441Z,9.10
2023-02-04T15:31:58.013Z,9.04
2023-02-04T15:34:25.832Z,9.01
2023-02-04T15:36:53.363Z,9.02
2023-02-04T15:39:20.808Z,9.04
2023-02-04T15:41:48.368Z,9.05
2023-02-04T15:44:17.235Z,8.90
2023-02-04T15:46:44.714Z,8.61
2023-02-04T15:49:12.360Z,8.73
2023-02-04T15:51:39.874Z,8.80
2023-02-04T15:54:07.326Z,8.78
2023-02-04T15:56:34.867Z,8.60
2023-02-04T15:59:02.646Z,8.56
2023-02-04T16:01:31.685Z,8.56
2023-02-04T16:04:00.190Z,8.65
2023-02-04T16:06:27.690Z,8.80
2023-02-04T16:08:55.139Z,8.90
2023-02-04T16:11:22.606Z,8.91
2023-02-04T16:13:50.056Z,8.88
2023-02-04T16:16:17.582Z,8.85
2023-02-04T16:18:46.467Z,8.83
2023-02-04T16:21:13.964Z,8.64
2023-02-04T16:23:43.322Z,8.45
2023-02-04T16:26:11.003Z,8.58
2023-02-04T16:28:38.493Z,8.65
2023-02-04T16:31:09.518Z,8.56
2023-02-04T16:33:37.146Z,8.56
2023-02-04T16:36:10.649Z,8.57
2023-02-04T16:38:38.799Z,8.50
2023-02-04T16:41:06.532Z,8.29
2023-02-04T16:43:34.117Z,8.13
2023-02-04T16:46:01.722Z,8.04
2023-02-04T16:48:29.506Z,7.74
2023-02-04T16:50:58.134Z,7.76
2023-02-04T16:53:26.918Z,7.84
2023-02-04T16:55:55.617Z,7.81
2023-02-04T16:58:23.508Z,7.81
2023-02-04T17:00:51.223Z,7.76
2023-02-04T17:03:18.779Z,7.78
2023-02-04T17:05:46.289Z,7.77
2023-02-04T17:08:14.995Z,7.79
2023-02-04T17:11:01.665Z,7.54
2023-02-04T17:13:29.272Z,7.45
2023-02-04T17:16:00.522Z,7.50
2023-02-04T17:18:29.375Z,7.47
2023-02-04T17:20:57.181Z,7.47
2023-02-04T17:23:25.139Z,7.47
2023-02-04T17:25:53.981Z,7.41
2023-02-04T17:28:21.529Z,7.37
2023-02-04T17:30:49.119Z,7.36
2023-02-04T17:33:16.583Z,7.33
2023-02-04T17:35:44.054Z,7.32
2023-02-04T17:38:11.523Z,7.24
2023-02-04T17:40:38.994Z,7.32
2023-02-04T17:43:08.366Z,7.22
2023-02-04T17:45:36.270Z,7.27
2023-02-04T17:48:04.986Z,7.33
2023-02-04T17:50:34.105Z,7.29
2023-02-04T17:53:01.545Z,7.18
2023-02-04T17:55:31.030Z,7.17
2023-02-04T17:58:00.909Z,7.29
2023-02-04T18:00:31.718Z,7.21
2023-02-04T18:02:59.342Z,7.24
2023-02-04T18:05:28.372Z,7.25
2023-02-04T18:08:01.119Z,7.22
2023-02-04T18:10:31.876Z,7.04
2023-02-04T18:13:00.286Z,6.96
2023-02-04T18:15:32.218Z,7.11
2023-02-04T18:18:11.573Z,6.97
2023-02-04T18:20:39.110Z,6.92
2023-02-04T18:23:13.635Z,6.76
2023-02-04T18:25:41.131Z,6.90
2023-02-04T18:28:15.340Z,6.89
2023-02-04T18:30:44.337Z,6.94
2023-02-04T18:33:20.635Z,6.86
2023-02-04T18:35:50.300Z,6.95
2023-02-04T18:38:28.325Z,6.95
2023-02-04T18:41:03.430Z,7.07
2023-02-04T18:43:34.938Z,7.03
2023-02-04T18:46:16.761Z,7.11
2023-02-04T18:49:00.952Z,7.25
2023-02-04T18:51:31.529Z,7.20
2023-02-04T18:54:19.523Z,6.87
2023-02-04T18:56:47.171Z,6.61
2023-02-04T18:59:18.120Z,6.56
2023-02-04T19:01:48.233Z,6.60
2023-02-04T19:04:21.472Z,6.71
2023-02-04T19:06:49.956Z,6.80
2023-02-04T19:09:23.232Z,6.99
2023-02-04T19:11:52.865Z,6.84
2023-02-04T19:14:33.284Z,6.97
2023-02-04T19:17:22.498Z,6.97
2023-02-04T19:19:57.329Z,7.03
2023-02-04T19:22:33.799Z,7.17
2023-02-04T19:25:20.685Z,7.21
2023-02-04T19:27:54.005Z,7.09
2023-02-04T19:30:42.057Z,7.06
2023-02-04T19:33:16.812Z,6.81
2023-02-04T19:35:46.134Z,6.99
2023-02-04T19:38:30.633Z,7.00
2023-02-04T19:40:58.339Z,7.04
2023-02-04T19:43:34.828Z,7.12
2023-02-04T19:46:03.660Z,7.07
2023-02-04T19:48:37.826Z,7.02
2023-02-04T19:51:20.069Z,7.01
2023-02-04T19:53:52.789Z,6.89
2023-02-04T19:56:33.353Z,6.72
2023-02-04T19:59:18.654Z,6.58
2023-02-04T20:01:46.267Z,6.68
2023-02-04T20:04:19.357Z,6.64
2023-02-04T20:06:58.696Z,6.66
2023-02-04T20:09:30.355Z,6.66
2023-02-04T20:12:05.727Z,6.67
2023-02-04T20:14:52.442Z,6.76
2023-02-04T20:17:26.484Z,6.57
2023-02-04T20:19:56.202Z,6.68
2023-02-04T20:22:48.591Z,6.69
2023-02-04T20:25:45.053Z,6.68
2023-02-04T20:28:39.818Z,6.59
2023-02-04T20:31:24.815Z,6.42
2023-02-04T20:33:54.108Z,6.45
2023-02-04T20:36:36.060Z,6.53
2023-02-04T20:39:32.267Z,6.53
2023-02-04T20:42:23.717Z,6.62
2023-02-04T20:44:53.496Z,6.53
2023-02-04T20:47:28.788Z,6.63
2023-02-04T20:50:00.204Z,6.61
2023-02-04T20:53:03.085Z,6.65
2023-02-04T20:55:35.735Z,6.57
2023-02-04T20:58:15.194Z,6.50
2023-02-04T21:00:47.851Z,6.45
2023-02-04T21:03:36.891Z,6.57
2023-02-04T21:06:18.534Z,6.37
2023-02-04T21:08:49.363Z,6.53
2023-02-04T21:11:17.343Z,6.59
2023-02-04T21:13:46.727Z,6.43
2023-02-04T21:16:22.636Z,6.42
2023-02-04T21:18:50.673Z,6.47
2023-02-04T21:21:20.188Z,6.49
2023-02-04T21:23:49.146Z,6.51
2023-02-04T21:26:16.730Z,6.49
2023-02-04T21:28:44.480Z,6.45
2023-02-04T21:31:12.514Z,6.26
2023-02-04T21:33:40.181Z,6.40
2023-02-04T21:36:08.876Z,6.40
2023-02-04T21:38:37.209Z,6.36
2023-02-04T21:41:06.500Z,6.28
2023-02-04T21:43:34.040Z,6.13
2023-02-04T21:46:02.182Z,6.22
2023-02-04T21:48:29.868Z,6.20
2023-02-04T21:50:57.538Z,6.20
2023-02-04T21:53:25.155Z,6.18
2023-02-04T21:55:52.791Z,6.10
2023-02-04T21:58:22.889Z,6.07
2023-02-04T22:00:50.756Z,5.98
2023-02-04T22:03:18.434Z,6.09
2023-02-04T22:05:46.039Z,6.04
2023-02-04T22:08:13.907Z,5.96
2023-02-04T22:10:44.069Z,6.05
2023-02-04T22:13:29.416Z,6.19
2023-02-04T22:15:59.258Z,6.17
2023-02-04T22:18:41.682Z,6.23
2023-02-04T22:21:10.995Z,6.01
2023-02-04T22:23:39.737Z,5.89
2023-02-04T22:26:08.508Z,5.88
2023-02-04T22:28:36.306Z,5.82
2023-02-04T22:31:05.324Z,5.58
2023-02-04T22:33:33.122Z,5.49
2023-02-04T22:36:00.739Z,5.28
2023-02-04T22:38:31.409Z,5.40
2023-02-04T22:40:59.016Z,5.39
2023-02-04T22:43:26.765Z,5.46
2023-02-04T22:45:54.505Z,5.68
2023-02-04T22:48:23.555Z,5.58
2023-02-04T22:50:51.169Z,5.51
2023-02-04T22:53:20.446Z,5.57
2023-02-04T22:55:48.048Z,5.58
2023-02-04T22:58:15.886Z,5.67
2023-02-04T23:00:47.052Z,5.59
2023-02-04T23:03:14.752Z,5.40
2023-02-04T23:05:45.189Z,5.46
2023-02-04T23:08:17.879Z,5.33
2023-02-04T23:10:45.568Z,5.27
2023-02-04T23:13:13.492Z,5.54
2023-02-04T23:15:41.119Z,5.62
2023-02-04T23:18:08.761Z,5.68
2023-02-04T23:20:36.632Z,5.62
2023-02-04T23:23:05.682Z,5.62
2023-02-04T23:25:35.061Z,5.60
2023-02-04T23:28:02.925Z,5.57
2023-02-04T23:30:32.863Z,5.58
2023-02-04T23:33:00.503Z,5.60
2023-02-04T23:35:28.239Z,5.57
2023-02-04T23:37:55.923Z,5.48
2023-02-04T23:40:25.188Z,5.47
2023-02-04T23:42:52.808Z,5.39
2023-02-04T23:45:21.546Z,5.40
2023-02-04T23:47:49.220Z,5.49
2023-02-04T23:50:17.580Z,5.49
2023-02-04T23:52:45.256Z,5.39
2023-02-04T23:55:12.775Z,5.27
2023-02-04T23:57:41.978Z,5.20
